createdAt,value
2019-05-26T00:00:10.495Z,95.67
2019-05-26T00:01:10.484Z,95.67
2019-05-26T00:02:10.474Z,95.67
2019-05-26T00:03:10.462Z,96.08
2019-05-26T00:04:10.453Z,96.28
2019-05-26T00:05:10.444Z,95.87
2019-05-26T00:06:10.432Z,95.72
2019-05-26T00:07:10.419Z,96.23
2019-05-26T00:08:10.410Z,96.55
2019-05-26T00:09:10.400Z,95.83
2019-05-26T00:10:10.546Z,95.21
2019-05-26T00:11:10.378Z,95.05
2019-05-26T00:12:10.366Z,95.31
2019-05-26T00:13:10.355Z,94.90
2019-05-26T00:14:10.345Z,94.49
2019-05-26T00:15:10.336Z,94.95
2019-05-26T00:16:10.325Z,94.54
2019-05-26T00:17:10.311Z,94.54
2019-05-26T00:18:10.300Z,94.43
2019-05-26T00:19:10.290Z,94.64
2019-05-26T00:20:10.280Z,94.74
2019-05-26T00:21:10.275Z,94.74
2019-05-26T00:22:10.259Z,94.54
2019-05-26T00:23:10.249Z,94.33
2019-05-26T00:24:10.237Z,94.95
2019-05-26T00:25:10.225Z,95.05
2019-05-26T00:26:10.215Z,94.99
2019-05-26T00:27:10.204Z,95.40
2019-05-26T00:28:10.194Z,95.50
2019-05-26T00:29:10.182Z,95.09
2019-05-26T00:30:10.179Z,95.30
2019-05-26T00:31:10.165Z,96.02
2019-05-26T00:32:10.151Z,96.43
2019-05-26T00:33:10.141Z,96.02
2019-05-26T00:34:10.133Z,96.94
2019-05-26T00:35:10.118Z,97.15
2019-05-26T00:36:10.107Z,96.99
2019-05-26T00:37:10.097Z,96.99
2019-05-26T00:38:10.085Z,97.61
2019-05-26T00:39:10.076Z,97.30
2019-05-26T00:40:10.064Z,97.40
2019-05-26T00:41:10.054Z,97.40
2019-05-26T00:42:10.110Z,97.81
2019-05-26T00:43:10.033Z,97.81
2019-05-26T00:44:10.023Z,97.81
2019-05-26T00:45:10.099Z,97.81
2019-05-26T00:46:10.001Z,97.44
2019-05-26T00:47:09.990Z,97.30
2019-05-26T00:48:09.989Z,97.34
2019-05-26T00:49:09.988Z,97.44
2019-05-26T00:50:09.958Z,98.02
2019-05-26T00:51:09.946Z,97.96
2019-05-26T00:52:09.935Z,97.91
2019-05-26T00:53:09.925Z,98.58
2019-05-26T00:54:09.915Z,98.47
2019-05-26T00:55:09.912Z,98.79
2019-05-26T00:56:09.892Z,98.58
2019-05-26T00:57:09.882Z,98.37
2019-05-26T00:58:09.869Z,98.58
2019-05-26T00:59:09.860Z,98.68
2019-05-26T01:00:09.848Z,98.37
2019-05-26T01:01:09.839Z,98.58
2019-05-26T01:02:09.843Z,98.62
2019-05-26T01:03:09.817Z,98.72
2019-05-26T01:04:09.808Z,98.58
2019-05-26T01:05:09.805Z,98.72
2019-05-26T01:06:09.784Z,98.72
2019-05-26T01:07:09.773Z,98.97
2019-05-26T01:08:09.764Z,98.72
2019-05-26T01:09:09.753Z,98.83
2019-05-26T01:10:09.742Z,99.04
2019-05-26T01:11:09.742Z,99.04
2019-05-26T01:12:09.721Z,98.72
2019-05-26T01:13:09.709Z,98.83
2019-05-26T01:14:09.707Z,98.72
2019-05-26T01:15:09.688Z,98.67
2019-05-26T01:16:09.680Z,98.77
2019-05-26T01:17:09.666Z,98.67
2019-05-26T01:18:09.656Z,99.08
2019-05-26T01:19:09.645Z,98.67
2019-05-26T01:20:09.635Z,99.08
2019-05-26T01:21:09.624Z,99.18
2019-05-26T01:22:09.612Z,99.08
2019-05-26T01:23:09.601Z,99.33
2019-05-26T01:24:09.590Z,98.92
2019-05-26T01:25:09.580Z,98.82
2019-05-26T01:26:09.569Z,98.97
2019-05-26T01:27:09.558Z,99.13
2019-05-26T01:28:09.547Z,99.02
2019-05-26T01:29:09.537Z,99.13
2019-05-26T01:30:09.528Z,99.13
2019-05-26T01:31:09.519Z,99.54
2019-05-26T01:32:09.578Z,99.85
2019-05-26T01:33:09.493Z,99.54
2019-05-26T01:34:09.484Z,99.54
2019-05-26T01:35:09.517Z,99.64
2019-05-26T01:36:09.477Z,99.54
2019-05-26T01:37:09.450Z,99.43
2019-05-26T01:38:23.389Z,99.64
2019-05-26T01:39:10.428Z,99.43
2019-05-26T01:40:09.418Z,99.99
2019-05-26T01:41:09.407Z,99.99
2019-05-26T01:42:09.409Z,99.99
2019-05-26T01:43:09.385Z,99.85
2019-05-26T01:44:09.376Z,99.74
2019-05-26T01:45:09.366Z,99.74
2019-05-26T01:46:09.352Z,99.85
2019-05-26T01:47:09.342Z,99.69
2019-05-26T01:48:09.331Z,99.74
2019-05-26T01:49:09.323Z,99.95
2019-05-26T01:50:09.310Z,99.99
2019-05-26T01:51:09.303Z,99.99
2019-05-26T01:52:09.288Z,99.99
2019-05-26T01:53:09.277Z,99.99
2019-05-26T01:54:09.267Z,99.90
2019-05-26T01:55:09.264Z,99.58
2019-05-26T01:56:09.245Z,99.69
2019-05-26T01:57:09.234Z,99.99
2019-05-26T01:58:09.225Z,99.99
2019-05-26T01:59:13.605Z,99.79
2019-05-26T02:00:09.202Z,99.99
2019-05-26T02:01:09.199Z,99.99
2019-05-26T02:02:09.181Z,99.99
2019-05-26T02:03:09.169Z,99.84
2019-05-26T02:04:09.218Z,99.99
2019-05-26T02:05:09.147Z,99.99
2019-05-26T02:06:09.150Z,99.99
2019-05-26T02:07:09.133Z,99.99
2019-05-26T02:08:11.822Z,99.99
2019-05-26T02:09:09.105Z,99.99
2019-05-26T02:10:09.098Z,99.99
2019-05-26T02:11:09.083Z,99.99
2019-05-26T02:12:09.071Z,99.99
2019-05-26T02:13:09.062Z,99.99
2019-05-26T02:14:09.052Z,99.99
2019-05-26T02:15:09.039Z,99.99
2019-05-26T02:16:09.029Z,99.99
2019-05-26T02:17:09.018Z,99.99
2019-05-26T02:18:09.006Z,99.99
2019-05-26T02:19:08.998Z,99.99
2019-05-26T02:20:08.985Z,99.99
2019-05-26T02:21:08.980Z,99.99
2019-05-26T02:22:08.967Z,99.99
2019-05-26T02:23:08.952Z,99.99
2019-05-26T02:24:08.956Z,99.99
2019-05-26T02:25:08.933Z,99.99
2019-05-26T02:26:08.920Z,99.99
2019-05-26T02:27:08.910Z,99.99
2019-05-26T02:28:08.899Z,99.99
2019-05-26T02:29:08.888Z,99.99
2019-05-26T02:30:08.878Z,99.99
2019-05-26T02:31:08.869Z,99.99
2019-05-26T02:32:08.857Z,99.99
2019-05-26T02:33:08.844Z,99.99
2019-05-26T02:34:08.834Z,99.99
2019-05-26T02:35:08.832Z,99.99
2019-05-26T02:36:08.821Z,99.99
2019-05-26T02:37:08.803Z,99.99
2019-05-26T02:38:08.798Z,99.99
2019-05-26T02:39:08.800Z,99.99
2019-05-26T02:40:08.768Z,99.99
2019-05-26T02:41:08.756Z,99.99
2019-05-26T02:42:08.747Z,99.99
2019-05-26T02:43:08.739Z,99.99
2019-05-26T02:44:08.728Z,99.99
2019-05-26T02:45:08.718Z,99.99
2019-05-26T02:46:08.704Z,99.99
2019-05-26T02:47:08.697Z,99.99
2019-05-26T02:48:08.684Z,99.99
2019-05-26T02:49:08.674Z,99.99
2019-05-26T02:50:08.669Z,99.99
2019-05-26T02:51:08.659Z,99.99
2019-05-26T02:52:08.655Z,99.99
2019-05-26T02:53:08.630Z,99.99
2019-05-26T02:54:08.616Z,99.99
2019-05-26T02:55:08.606Z,99.99
2019-05-26T02:56:08.595Z,99.99
2019-05-26T02:57:08.586Z,99.99
2019-05-26T02:58:08.574Z,99.99
2019-05-26T02:59:08.563Z,99.99
2019-05-26T03:00:08.558Z,99.99
2019-05-26T03:01:08.542Z,99.99
2019-05-26T03:02:08.536Z,99.99
2019-05-26T03:03:08.520Z,99.99
2019-05-26T03:04:08.509Z,99.99
2019-05-26T03:05:08.500Z,99.99
2019-05-26T03:06:08.490Z,99.99
2019-05-26T03:07:08.476Z,99.99
2019-05-26T03:08:08.468Z,99.99
2019-05-26T03:09:21.827Z,99.99
2019-05-26T03:10:09.443Z,99.99
2019-05-26T03:11:08.433Z,99.99
2019-05-26T03:12:08.422Z,99.99
2019-05-26T03:13:08.411Z,99.99
2019-05-26T03:14:08.399Z,99.99
2019-05-26T03:15:08.394Z,99.99
2019-05-26T03:16:08.379Z,99.99
2019-05-26T03:17:08.369Z,99.99
2019-05-26T03:18:08.356Z,99.99
2019-05-26T03:19:08.354Z,99.99
2019-05-26T03:20:08.335Z,99.99
2019-05-26T03:21:08.327Z,99.99
2019-05-26T03:22:08.312Z,99.99
2019-05-26T03:23:08.313Z,99.99
2019-05-26T03:24:08.295Z,99.99
2019-05-26T03:25:08.281Z,99.99
2019-05-26T03:26:08.270Z,99.99
2019-05-26T03:27:08.260Z,99.99
2019-05-26T03:28:08.249Z,99.99
2019-05-26T03:29:08.239Z,99.99
2019-05-26T03:30:08.227Z,99.99
2019-05-26T03:31:08.222Z,99.99
2019-05-26T03:32:08.211Z,99.99
2019-05-26T03:33:08.262Z,99.99
2019-05-26T03:34:08.186Z,99.99
2019-05-26T03:35:08.324Z,99.99
2019-05-26T03:36:10.711Z,99.99
2019-05-26T03:37:08.151Z,99.99
2019-05-26T03:38:08.141Z,99.99
2019-05-26T03:39:08.131Z,99.99
2019-05-26T03:40:08.122Z,99.99
2019-05-26T03:41:08.108Z,99.99
2019-05-26T03:42:08.134Z,99.99
2019-05-26T03:43:08.086Z,99.99
2019-05-26T03:44:08.077Z,99.99
2019-05-26T03:45:08.063Z,99.99
2019-05-26T03:46:08.054Z,99.99
2019-05-26T03:47:08.043Z,99.99
2019-05-26T03:48:08.033Z,99.99
2019-05-26T03:49:08.022Z,99.99
2019-05-26T03:50:08.040Z,99.99
2019-05-26T03:51:08.000Z,99.99
2019-05-26T03:52:07.990Z,99.99
2019-05-26T03:53:07.978Z,99.99
2019-05-26T03:54:07.979Z,99.99
2019-05-26T03:55:07.960Z,99.99
2019-05-26T03:56:07.946Z,99.99
2019-05-26T03:57:07.948Z,99.71
2019-05-26T03:58:07.934Z,99.46
2019-05-26T03:59:07.914Z,98.84
2019-05-26T04:00:07.906Z,99.10
2019-05-26T04:01:07.892Z,98.33
2019-05-26T04:02:07.881Z,98.07
2019-05-26T04:03:07.870Z,97.97
2019-05-26T04:04:07.862Z,97.92
2019-05-26T04:05:07.853Z,98.44
2019-05-26T04:06:07.838Z,98.13
2019-05-26T04:07:07.829Z,97.41
2019-05-26T04:08:07.821Z,96.90
2019-05-26T04:09:07.809Z,96.59
2019-05-26T04:10:07.803Z,96.14
2019-05-26T04:11:07.792Z,95.01
2019-05-26T04:12:07.774Z,95.42
2019-05-26T04:13:07.774Z,95.31
2019-05-26T04:14:07.753Z,94.80
2019-05-26T04:15:07.748Z,94.80
2019-05-26T04:16:07.734Z,94.55
2019-05-26T04:17:07.732Z,94.34
2019-05-26T04:18:07.710Z,93.73
2019-05-26T04:19:07.723Z,94.45
2019-05-26T04:20:07.689Z,93.73
2019-05-26T04:21:07.678Z,93.32
2019-05-26T04:22:07.666Z,93.68
2019-05-26T04:23:07.657Z,93.12
2019-05-26T04:24:07.646Z,93.17
2019-05-26T04:25:07.633Z,93.27
2019-05-26T04:26:07.627Z,93.38
2019-05-26T04:27:07.612Z,92.97
2019-05-26T04:28:07.604Z,93.27
2019-05-26T04:29:07.595Z,93.13
2019-05-26T04:30:07.580Z,92.31
2019-05-26T04:31:07.573Z,90.97
2019-05-26T04:32:07.561Z,90.77
2019-05-26T04:33:07.551Z,91.24
2019-05-26T04:34:07.556Z,91.14
2019-05-26T04:35:07.553Z,90.73
2019-05-26T04:36:07.515Z,91.03
2019-05-26T04:37:07.505Z,90.52
2019-05-26T04:38:07.504Z,91.35
2019-05-26T04:39:07.483Z,89.70
2019-05-26T04:40:25.098Z,89.87
2019-05-26T04:41:08.468Z,89.97
2019-05-26T04:42:07.450Z,89.66
2019-05-26T04:43:07.444Z,89.76
2019-05-26T04:44:07.430Z,89.56
2019-05-26T04:45:07.422Z,89.15
2019-05-26T04:46:07.414Z,89.56
2019-05-26T04:47:07.402Z,89.15
2019-05-26T04:48:07.390Z,89.00
2019-05-26T04:49:07.388Z,88.59
2019-05-26T04:50:07.381Z,89.00
2019-05-26T04:51:07.355Z,89.11
2019-05-26T04:52:07.345Z,89.42
2019-05-26T04:53:07.525Z,88.29
2019-05-26T04:54:07.322Z,89.17
2019-05-26T04:55:07.311Z,88.18
2019-05-26T04:56:07.302Z,88.04
2019-05-26T04:57:07.290Z,87.22
2019-05-26T04:58:07.280Z,87.43
2019-05-26T04:59:07.269Z,87.84
2019-05-26T05:00:07.266Z,87.94
2019-05-26T05:01:07.249Z,88.14
2019-05-26T05:02:07.236Z,87.84
2019-05-26T05:03:07.225Z,87.94
2019-05-26T05:04:07.215Z,87.38
2019-05-26T05:05:07.205Z,87.38
2019-05-26T05:06:07.198Z,87.02
2019-05-26T05:07:07.183Z,86.81
2019-05-26T05:08:07.174Z,86.26
2019-05-26T05:09:07.163Z,87.08
2019-05-26T05:10:07.151Z,86.57
2019-05-26T05:11:07.142Z,86.98
2019-05-26T05:12:07.133Z,86.77
2019-05-26T05:13:07.120Z,86.88
2019-05-26T05:14:07.108Z,86.16
2019-05-26T05:15:07.100Z,86.53
2019-05-26T05:16:07.103Z,85.61
2019-05-26T05:17:07.075Z,85.71
2019-05-26T05:18:07.070Z,84.85
2019-05-26T05:19:07.056Z,84.89
2019-05-26T05:20:07.047Z,84.99
2019-05-26T05:21:07.034Z,84.99
2019-05-26T05:22:07.023Z,84.85
2019-05-26T05:23:07.013Z,85.06
2019-05-26T05:24:07.007Z,84.55
2019-05-26T05:25:13.897Z,85.02
2019-05-26T05:26:07.979Z,84.71
2019-05-26T05:27:06.972Z,84.26
2019-05-26T05:28:06.961Z,83.04
2019-05-26T05:29:06.949Z,83.04
2019-05-26T05:30:06.939Z,82.12
2019-05-26T05:31:06.931Z,82.18
2019-05-26T05:32:06.916Z,83.61
2019-05-26T05:33:06.904Z,81.46
2019-05-26T05:34:06.893Z,81.94
2019-05-26T05:35:06.890Z,81.53
2019-05-26T05:36:06.873Z,80.41
2019-05-26T05:37:06.861Z,80.61
2019-05-26T05:38:06.850Z,80.37
2019-05-26T05:39:06.842Z,80.33
2019-05-26T05:40:06.831Z,79.62
2019-05-26T05:41:06.817Z,79.79
2019-05-26T05:42:06.805Z,79.07
2019-05-26T05:43:06.794Z,78.36
2019-05-26T05:44:06.785Z,78.32
2019-05-26T05:45:06.777Z,77.24
2019-05-26T05:46:06.763Z,77.14
2019-05-26T05:47:06.750Z,77.14
2019-05-26T05:48:06.742Z,77.30
2019-05-26T05:49:06.728Z,76.96
2019-05-26T05:50:06.718Z,76.45
2019-05-26T05:51:06.720Z,76.52
2019-05-26T05:52:06.696Z,76.52
2019-05-26T05:53:06.686Z,77.03
2019-05-26T05:54:06.690Z,75.81
2019-05-26T05:55:06.664Z,75.70
2019-05-26T05:56:06.660Z,75.50
2019-05-26T05:57:06.645Z,75.98
2019-05-26T05:58:06.631Z,74.35
2019-05-26T05:59:06.621Z,74.11
2019-05-26T06:00:06.614Z,74.92
2019-05-26T06:01:06.601Z,74.72
2019-05-26T06:02:06.590Z,74.21
2019-05-26T06:03:06.578Z,73.84
2019-05-26T06:04:06.568Z,74.96
2019-05-26T06:05:06.557Z,75.43
2019-05-26T06:06:06.545Z,73.67
2019-05-26T06:07:06.536Z,72.72
2019-05-26T06:08:06.525Z,73.16
2019-05-26T06:09:06.513Z,73.77
2019-05-26T06:10:06.504Z,73.97
2019-05-26T06:11:15.967Z,72.92
2019-05-26T06:12:07.492Z,72.52
2019-05-26T06:13:06.471Z,73.22
2019-05-26T06:14:06.459Z,72.38
2019-05-26T06:15:06.464Z,72.58
2019-05-26T06:16:06.442Z,72.17
2019-05-26T06:17:10.219Z,73.50
2019-05-26T06:18:06.416Z,72.48
2019-05-26T06:19:06.410Z,72.99
2019-05-26T06:20:06.397Z,72.34
2019-05-26T06:21:06.385Z,71.03
2019-05-26T06:22:06.376Z,72.14
2019-05-26T06:23:06.365Z,70.48
2019-05-26T06:24:06.353Z,70.69
2019-05-26T06:25:06.345Z,70.48
2019-05-26T06:26:06.332Z,70.79
2019-05-26T06:27:06.320Z,69.07
2019-05-26T06:28:06.310Z,68.63
2019-05-26T06:29:06.301Z,68.43
2019-05-26T06:30:06.290Z,69.71
2019-05-26T06:31:06.278Z,67.58
2019-05-26T06:32:06.645Z,68.49
2019-05-26T06:33:06.255Z,67.85
2019-05-26T06:34:06.246Z,68.43
2019-05-26T06:35:06.233Z,66.41
2019-05-26T06:36:06.229Z,66.33
2019-05-26T06:37:06.212Z,66.13
2019-05-26T06:38:06.202Z,66.24
2019-05-26T06:39:06.190Z,66.54
2019-05-26T06:40:06.180Z,67.35
2019-05-26T06:41:06.169Z,66.00
2019-05-26T06:42:06.156Z,66.41
2019-05-26T06:43:06.147Z,67.82
2019-05-26T06:44:06.137Z,67.49
2019-05-26T06:45:06.125Z,66.17
2019-05-26T06:46:06.115Z,66.55
2019-05-26T06:47:06.103Z,65.26
2019-05-26T06:48:06.109Z,65.80
2019-05-26T06:49:06.090Z,65.50
2019-05-26T06:50:06.072Z,65.90
2019-05-26T06:51:06.064Z,66.00
2019-05-26T06:52:06.050Z,64.48
2019-05-26T06:53:06.040Z,66.81
2019-05-26T06:54:06.029Z,65.59
2019-05-26T06:55:06.025Z,66.17
2019-05-26T06:56:06.009Z,64.73
2019-05-26T06:57:06.000Z,63.99
2019-05-26T06:58:05.985Z,64.19
2019-05-26T06:59:05.975Z,63.08
2019-05-26T07:00:05.963Z,63.78
2019-05-26T07:01:05.953Z,62.57
2019-05-26T07:02:05.941Z,63.58
2019-05-26T07:03:05.931Z,63.78
2019-05-26T07:04:05.920Z,63.89
2019-05-26T07:05:05.914Z,63.28
2019-05-26T07:06:05.903Z,62.24
2019-05-26T07:07:05.889Z,62.34
2019-05-26T07:08:05.879Z,62.14
2019-05-26T07:09:05.867Z,62.64
2019-05-26T07:10:05.856Z,62.01
2019-05-26T07:11:05.846Z,62.21
2019-05-26T07:12:05.846Z,61.98
2019-05-26T07:13:05.825Z,62.48
2019-05-26T07:14:05.813Z,61.07
2019-05-26T07:15:05.803Z,60.87
2019-05-26T07:16:05.792Z,61.37
2019-05-26T07:17:05.781Z,60.57
2019-05-26T07:18:05.775Z,60.77
2019-05-26T07:19:05.760Z,61.07
2019-05-26T07:20:05.756Z,60.46
2019-05-26T07:21:05.738Z,59.63
2019-05-26T07:22:05.730Z,59.63
2019-05-26T07:23:07.111Z,60.66
2019-05-26T07:24:05.789Z,59.25
2019-05-26T07:25:05.697Z,60.24
2019-05-26T07:26:05.683Z,59.93
2019-05-26T07:27:05.674Z,59.80
2019-05-26T07:28:05.663Z,59.00
2019-05-26T07:29:05.653Z,58.36
2019-05-26T07:30:05.640Z,59.55
2019-05-26T07:31:05.630Z,58.51
2019-05-26T07:32:05.619Z,58.54
2019-05-26T07:33:05.610Z,58.84
2019-05-26T07:34:05.602Z,57.90
2019-05-26T07:35:05.588Z,58.21
2019-05-26T07:36:05.576Z,57.70
2019-05-26T07:37:05.566Z,57.40
2019-05-26T07:38:05.561Z,57.07
2019-05-26T07:39:05.544Z,56.57
2019-05-26T07:40:05.535Z,57.60
2019-05-26T07:41:05.522Z,57.83
2019-05-26T07:42:10.724Z,58.23
2019-05-26T07:43:06.499Z,57.93
2019-05-26T07:44:05.490Z,58.03
2019-05-26T07:45:05.481Z,58.74
2019-05-26T07:46:05.470Z,57.63
2019-05-26T07:47:05.459Z,58.03
2019-05-26T07:48:05.453Z,57.30
2019-05-26T07:49:05.440Z,58.01
2019-05-26T07:50:05.428Z,57.10
2019-05-26T07:51:05.416Z,56.87
2019-05-26T07:52:05.406Z,55.76
2019-05-26T07:53:05.395Z,56.47
2019-05-26T07:54:05.386Z,56.24
2019-05-26T07:55:05.401Z,56.77
2019-05-26T07:56:05.361Z,55.16
2019-05-26T07:57:05.351Z,55.46
2019-05-26T07:58:05.341Z,55.46
2019-05-26T07:59:05.331Z,56.80
2019-05-26T08:00:05.349Z,56.16
2019-05-26T08:01:05.367Z,56.60
2019-05-26T08:02:05.329Z,56.87
2019-05-26T08:03:05.357Z,56.97
2019-05-26T08:04:05.298Z,57.78
2019-05-26T08:05:05.294Z,55.26
2019-05-26T08:06:05.340Z,55.81
2019-05-26T08:07:05.296Z,55.21
2019-05-26T08:08:12.510Z,55.31
2019-05-26T08:09:06.269Z,55.99
2019-05-26T08:10:05.236Z,56.79
2019-05-26T08:11:05.225Z,55.00
2019-05-26T08:12:05.219Z,56.62
2019-05-26T08:13:05.196Z,56.82
2019-05-26T08:14:05.185Z,55.71
2019-05-26T08:15:05.179Z,56.92
2019-05-26T08:16:05.183Z,54.91
2019-05-26T08:17:05.179Z,54.80
2019-05-26T08:18:05.138Z,56.04
2019-05-26T08:19:05.138Z,57.04
2019-05-26T08:20:05.111Z,56.41
2019-05-26T08:21:05.125Z,55.21
2019-05-26T08:22:05.106Z,54.83
2019-05-26T08:23:05.117Z,56.54
2019-05-26T08:24:05.110Z,56.95
2019-05-26T08:25:05.075Z,55.83
2019-05-26T08:26:05.043Z,55.46
2019-05-26T08:27:05.033Z,57.17
2019-05-26T08:28:05.055Z,55.33
2019-05-26T08:29:05.025Z,55.33
2019-05-26T08:30:05.020Z,55.13
2019-05-26T08:31:05.021Z,54.91
2019-05-26T08:32:05.003Z,55.18
2019-05-26T08:33:05.020Z,53.07
2019-05-26T08:34:04.994Z,55.88
2019-05-26T08:35:04.952Z,55.76
2019-05-26T08:36:04.955Z,53.34
2019-05-26T08:37:04.943Z,53.45
2019-05-26T08:38:04.956Z,54.75
2019-05-26T08:39:04.907Z,53.47
2019-05-26T08:40:04.914Z,53.45
2019-05-26T08:41:04.903Z,53.55
2019-05-26T08:42:04.891Z,53.57
2019-05-26T08:43:04.894Z,54.17
2019-05-26T08:44:04.900Z,54.58
2019-05-26T08:45:04.868Z,54.17
2019-05-26T08:46:04.847Z,54.75
2019-05-26T08:47:04.858Z,53.52
2019-05-26T08:48:04.829Z,53.42
2019-05-26T08:49:04.826Z,53.34
2019-05-26T08:50:04.864Z,53.72
2019-05-26T08:51:04.804Z,53.02
2019-05-26T08:52:04.801Z,52.80
2019-05-26T08:53:04.818Z,53.39
2019-05-26T08:54:04.796Z,51.87
2019-05-26T08:55:04.767Z,51.26
2019-05-26T08:56:04.732Z,52.67
2019-05-26T08:57:04.751Z,52.17
2019-05-26T08:58:04.726Z,53.27
2019-05-26T08:59:04.712Z,53.55
2019-05-26T09:00:04.704Z,50.63
2019-05-26T09:01:04.676Z,51.04
2019-05-26T09:02:04.673Z,50.16
2019-05-26T09:03:04.687Z,52.80
2019-05-26T09:04:04.656Z,53.39
2019-05-26T09:05:04.654Z,53.37
2019-05-26T09:06:04.641Z,51.56
2019-05-26T09:07:04.650Z,51.56
2019-05-26T09:08:07.926Z,52.55
2019-05-26T09:09:04.626Z,51.54
2019-05-26T09:10:04.603Z,49.51
2019-05-26T09:11:04.580Z,50.31
2019-05-26T09:12:04.590Z,50.79
2019-05-26T09:13:04.590Z,50.39
2019-05-26T09:14:04.543Z,50.11
2019-05-26T09:15:04.565Z,50.49
2019-05-26T09:16:04.602Z,50.79
2019-05-26T09:17:04.554Z,48.96
2019-05-26T09:18:04.522Z,50.62
2019-05-26T09:19:04.485Z,50.02
2019-05-26T09:20:04.474Z,50.52
2019-05-26T09:21:04.542Z,49.07
2019-05-26T09:22:04.453Z,50.76
2019-05-26T09:23:04.444Z,49.87
2019-05-26T09:24:04.439Z,50.59
2019-05-26T09:25:04.425Z,50.69
2019-05-26T09:26:04.411Z,51.82
2019-05-26T09:27:04.400Z,51.92
2019-05-26T09:28:04.395Z,50.84
2019-05-26T09:29:04.381Z,50.11
2019-05-26T09:30:04.371Z,50.69
2019-05-26T09:31:04.359Z,50.51
2019-05-26T09:32:04.349Z,52.52
2019-05-26T09:33:04.342Z,50.92
2019-05-26T09:34:04.334Z,51.44
2019-05-26T09:35:04.319Z,52.77
2019-05-26T09:36:04.308Z,52.52
2019-05-26T09:37:04.298Z,50.09
2019-05-26T09:38:04.286Z,49.54
2019-05-26T09:39:04.276Z,49.82
2019-05-26T09:40:04.265Z,48.11
2019-05-26T09:41:04.255Z,48.14
2019-05-26T09:42:04.245Z,48.64
2019-05-26T09:43:15.564Z,50.74
2019-05-26T09:44:05.265Z,48.52
2019-05-26T09:45:04.219Z,47.36
2019-05-26T09:46:04.208Z,48.32
2019-05-26T09:47:04.193Z,48.24
2019-05-26T09:48:04.182Z,48.74
2019-05-26T09:49:04.179Z,48.11
2019-05-26T09:50:04.160Z,48.10
2019-05-26T09:51:04.153Z,47.63
2019-05-26T09:52:04.139Z,45.93
2019-05-26T09:53:04.129Z,46.13
2019-05-26T09:54:04.119Z,47.27
2019-05-26T09:55:04.109Z,47.17
2019-05-26T09:56:04.101Z,48.97
2019-05-26T09:57:04.087Z,47.05
2019-05-26T09:58:04.078Z,46.23
2019-05-26T09:59:04.067Z,48.80
2019-05-26T10:00:04.058Z,46.61
2019-05-26T10:01:04.050Z,45.55
2019-05-26T10:02:04.038Z,46.35
2019-05-26T10:03:04.027Z,46.39
2019-05-26T10:04:04.016Z,49.99
2019-05-26T10:05:04.015Z,47.24
2019-05-26T10:06:03.998Z,48.64
2019-05-26T10:07:03.992Z,48.10
2019-05-26T10:08:03.974Z,48.29
2019-05-26T10:09:03.963Z,46.01
2019-05-26T10:10:03.953Z,47.67
2019-05-26T10:11:03.942Z,46.19
2019-05-26T10:12:03.931Z,46.39
2019-05-26T10:13:03.921Z,46.44
2019-05-26T10:14:03.912Z,46.69
2019-05-26T10:15:03.899Z,47.74
2019-05-26T10:16:03.891Z,47.89
2019-05-26T10:17:03.881Z,47.02
2019-05-26T10:18:03.885Z,46.51
2019-05-26T10:19:03.857Z,46.37
2019-05-26T10:20:03.847Z,47.85
2019-05-26T10:21:03.835Z,46.09
2019-05-26T10:22:03.840Z,46.51
2019-05-26T10:23:03.832Z,46.09
2019-05-26T10:24:03.808Z,45.27
2019-05-26T10:25:03.793Z,45.95
2019-05-26T10:26:03.784Z,46.35
2019-05-26T10:27:03.775Z,46.33
2019-05-26T10:28:03.764Z,46.15
2019-05-26T10:29:03.769Z,46.19
2019-05-26T10:30:03.767Z,46.39
2019-05-26T10:31:03.750Z,46.85
2019-05-26T10:32:03.720Z,45.63
2019-05-26T10:33:03.710Z,46.31
2019-05-26T10:34:03.700Z,47.50
2019-05-26T10:35:03.692Z,45.35
2019-05-26T10:36:03.680Z,46.05
2019-05-26T10:37:03.669Z,46.45
2019-05-26T10:38:03.658Z,46.39
2019-05-26T10:39:03.714Z,47.11
2019-05-26T10:40:03.643Z,48.52
2019-05-26T10:41:03.627Z,46.31
2019-05-26T10:42:03.618Z,49.99
2019-05-26T10:43:03.605Z,48.92
2019-05-26T10:44:03.595Z,48.52
2019-05-26T10:45:03.596Z,47.72
2019-05-26T10:46:03.581Z,47.84
2019-05-26T10:47:03.566Z,47.66
2019-05-26T10:48:03.595Z,49.76
2019-05-26T10:49:03.547Z,50.76
2019-05-26T10:50:03.532Z,48.69
2019-05-26T10:51:06.790Z,49.49
2019-05-26T10:52:03.513Z,47.19
2019-05-26T10:53:03.499Z,48.91
2019-05-26T10:54:03.493Z,49.51
2019-05-26T10:55:03.480Z,47.71
2019-05-26T10:56:03.468Z,48.96
2019-05-26T10:57:03.479Z,46.22
2019-05-26T10:58:03.505Z,50.09
2019-05-26T10:59:03.852Z,46.77
2019-05-26T11:00:03.428Z,46.35
2019-05-26T11:01:03.422Z,46.45
2019-05-26T11:02:03.405Z,46.47
2019-05-26T11:03:03.394Z,45.47
2019-05-26T11:04:03.384Z,45.95
2019-05-26T11:05:03.373Z,45.23
2019-05-26T11:06:03.365Z,46.01
2019-05-26T11:07:03.352Z,46.01
2019-05-26T11:08:03.416Z,45.89
2019-05-26T11:09:03.330Z,43.89
2019-05-26T11:10:03.321Z,44.24
2019-05-26T11:11:03.310Z,43.47
2019-05-26T11:12:03.313Z,44.51
2019-05-26T11:13:03.289Z,45.53
2019-05-26T11:14:03.668Z,45.37
2019-05-26T11:15:03.270Z,46.39
2019-05-26T11:16:03.260Z,46.80
2019-05-26T11:17:03.271Z,46.89
2019-05-26T11:18:03.236Z,47.37
2019-05-26T11:19:03.227Z,47.15
2019-05-26T11:20:03.231Z,45.25
2019-05-26T11:21:03.207Z,44.59
2019-05-26T11:22:03.198Z,45.69
2019-05-26T11:23:03.201Z,47.69
2019-05-26T11:24:03.174Z,46.12
2019-05-26T11:25:03.169Z,45.31
2019-05-26T11:26:03.153Z,46.42
2019-05-26T11:27:09.419Z,47.92
2019-05-26T11:28:04.131Z,46.59
2019-05-26T11:29:03.121Z,46.09
2019-05-26T11:30:03.112Z,46.80
2019-05-26T11:31:03.102Z,46.39
2019-05-26T11:32:03.088Z,47.35
2019-05-26T11:33:03.076Z,44.79
2019-05-26T11:34:03.067Z,44.24
2019-05-26T11:35:03.055Z,43.63
2019-05-26T11:36:03.048Z,43.87
2019-05-26T11:37:03.067Z,43.81
2019-05-26T11:38:03.025Z,43.73
2019-05-26T11:39:03.019Z,45.47
2019-05-26T11:40:03.005Z,46.00
2019-05-26T11:41:02.993Z,46.89
2019-05-26T11:42:12.916Z,46.67
2019-05-26T11:43:15.835Z,46.27
2019-05-26T11:44:17.054Z,46.97
2019-05-26T11:45:03.950Z,46.55
2019-05-26T11:46:02.940Z,45.97
2019-05-26T11:47:02.929Z,45.65
2019-05-26T11:48:02.929Z,45.43
2019-05-26T11:49:02.906Z,45.61
2019-05-26T11:50:02.896Z,44.31
2019-05-26T11:51:02.885Z,44.57
2019-05-26T11:52:02.899Z,42.83
2019-05-26T11:53:02.865Z,42.73
2019-05-26T11:54:02.860Z,44.20
2019-05-26T11:55:02.843Z,41.02
2019-05-26T11:56:02.832Z,40.32
2019-05-26T11:57:02.821Z,43.15
2019-05-26T11:58:02.813Z,43.57
2019-05-26T11:59:02.802Z,42.47
2019-05-26T12:00:02.860Z,42.65
2019-05-26T12:01:02.780Z,41.63
2019-05-26T12:02:02.773Z,43.01
2019-05-26T12:03:02.759Z,41.38
2019-05-26T12:04:02.754Z,40.74
2019-05-26T12:05:02.741Z,40.06
2019-05-26T12:06:02.734Z,40.06
2019-05-26T12:07:04.482Z,39.98
2019-05-26T12:08:02.718Z,41.47
2019-05-26T12:09:02.698Z,41.77
2019-05-26T12:10:02.695Z,40.40
2019-05-26T12:11:02.678Z,42.23
2019-05-26T12:12:02.695Z,42.65
2019-05-26T12:13:02.661Z,42.89
2019-05-26T12:14:02.647Z,43.99
2019-05-26T12:15:02.696Z,44.31
2019-05-26T12:16:02.626Z,42.81
2019-05-26T12:17:02.614Z,44.41
2019-05-26T12:18:02.603Z,43.43
2019-05-26T12:19:02.599Z,44.61
2019-05-26T12:20:05.081Z,44.49
2019-05-26T12:21:02.573Z,45.89
2019-05-26T12:22:02.587Z,44.46
2019-05-26T12:23:02.553Z,42.67
2019-05-26T12:24:02.547Z,41.67
2019-05-26T12:25:02.538Z,43.03
2019-05-26T12:26:02.523Z,41.74
2019-05-26T12:27:02.511Z,43.60
2019-05-26T12:28:02.500Z,41.93
2019-05-26T12:29:02.493Z,40.92
2019-05-26T12:30:02.478Z,40.30
2019-05-26T12:31:02.469Z,42.05
2019-05-26T12:32:02.457Z,43.23
2019-05-26T12:33:02.445Z,40.06
2019-05-26T12:34:02.436Z,40.58
2019-05-26T12:35:02.427Z,40.30
2019-05-26T12:36:02.423Z,41.22
2019-05-26T12:37:02.410Z,39.26
2019-05-26T12:38:02.396Z,43.65
2019-05-26T12:39:02.385Z,41.52
2019-05-26T12:40:02.376Z,41.30
2019-05-26T12:41:02.366Z,39.80
2019-05-26T12:42:02.357Z,40.52
2019-05-26T12:43:02.344Z,40.66
2019-05-26T12:44:02.333Z,41.75
2019-05-26T12:45:02.328Z,42.55
2019-05-26T12:46:02.316Z,42.63
2019-05-26T12:47:02.300Z,41.82
2019-05-26T12:48:02.293Z,41.53
2019-05-26T12:49:02.283Z,40.48
2019-05-26T12:50:02.279Z,42.59
2019-05-26T12:51:02.260Z,43.11
2019-05-26T12:52:02.252Z,43.03